Time;durP1;ratioP1;P1;durP2;ratioP2;P2;SDS_P1;SDS_P2;PMS_P1;PMS_P2;Temp;Humidity;BMP_temperature;BMP_pressure;BME280_temperature;BME280_humidity;BME280_pressure;Samples;Min_cycle;Max_cycle;Signal;HPM_P1;HPM_P2
2021/01/01 00:01:14;;;;;;;33.20;19.77;;;-0.40;85.50;;;;;;5079302;28;20256;-86
2021/01/01 00:03:41;;;;;;;31.40;20.07;;;-0.40;85.60;;;;;;5077958;28;20227;-84
2021/01/01 00:06:10;;;;;;;35.27;20.53;;;-0.40;85.60;;;;;;5077264;28;20225;-86
2021/01/01 00:08:37;;;;;;;35.03;20.37;;;-0.40;85.50;;;;;;5077373;28;20193;-85
2021/01/01 00:11:04;;;;;;;32.60;19.80;;;-0.40;85.50;;;;;;5076718;28;20224;-85
2021/01/01 00:13:30;;;;;;;33.30;19.47;;;-0.60;86.30;;;;;;5075693;28;20642;-85
2021/01/01 00:15:57;;;;;;;35.40;20.27;;;-0.60;86.60;;;;;;5072107;28;20586;-85
2021/01/01 00:18:23;;;;;;;32.17;19.33;;;-0.60;87.00;;;;;;5082614;28;20205;-84
2021/01/01 00:20:49;;;;;;;34.10;19.17;;;-0.50;86.00;;;;;;5078259;28;20638;-84
2021/01/01 00:23:17;;;;;;;35.07;20.07;;;-0.50;85.50;;;;;;5075240;28;20205;-84
2021/01/01 00:25:44;;;;;;;37.47;20.40;;;-0.50;85.50;;;;;;5086644;28;20232;-85
2021/01/01 00:28:10;;;;;;;35.23;19.07;;;-0.50;85.50;;;;;;5089251;28;20504;-85
2021/01/01 00:30:37;;;;;;;37.67;22.00;;;-0.50;85.50;;;;;;5069823;28;20216;-84
2021/01/01 00:33:03;;;;;;;39.73;22.03;;;-0.50;85.60;;;;;;5079033;28;20197;-86
2021/01/01 00:35:30;;;;;;;38.43;22.47;;;-0.40;85.50;;;;;;5078569;28;20201;-86
2021/01/01 00:37:56;;;;;;;39.67;22.63;;;-0.40;85.50;;;;;;5079102;28;20230;-84
2021/01/01 00:40:24;;;;;;;37.47;20.47;;;-0.40;85.60;;;;;;5072969;28;20204;-85
2021/01/01 00:42:50;;;;;;;34.43;20.17;;;-0.50;85.50;;;;;;5072406;28;20224;-86
2021/01/01 00:45:16;;;;;;;36.90;20.17;;;-0.50;85.50;;;;;;5066480;28;20250;-85
2021/01/01 00:47:46;;;;;;;31.90;18.67;;;-0.60;85.50;;;;;;5073691;28;20225;-85
2021/01/01 00:50:13;;;;;;;31.67;18.57;;;-0.50;85.50;;;;;;5063693;28;20210;-85
2021/01/01 00:52:40;;;;;;;34.13;18.50;;;-0.50;85.50;;;;;;5071586;28;20225;-85
2021/01/01 00:55:08;;;;;;;29.43;15.53;;;-0.50;86.20;;;;;;5071614;28;20314;-84
2021/01/01 00:57:35;;;;;;;27.50;16.40;;;-0.50;85.50;;;;;;5074570;28;20229;-87
2021/01/01 01:00:03;;;;;;;27.70;17.10;;;-0.60;85.40;;;;;;5066153;28;20221;-86
2021/01/01 01:02:30;;;;;;;29.73;17.07;;;-0.70;86.00;;;;;;5070332;28;20239;-87
2021/01/01 01:04:56;;;;;;;28.50;17.33;;;-0.60;87.50;;;;;;5070067;28;20204;-87
2021/01/01 01:07:23;;;;;;;26.07;15.77;;;-0.50;86.50;;;;;;5070299;28;20582;-86
2021/01/01 01:09:49;;;;;;;28.73;16.67;;;-0.50;85.60;;;;;;5071856;28;20204;-86
2021/01/01 01:12:17;;;;;;;29.30;16.80;;;-0.40;85.50;;;;;;5072193;28;20240;-86
2021/01/01 01:14:44;;;;;;;27.37;15.97;;;-0.50;85.50;;;;;;5074691;28;20582;-86
2021/01/01 01:17:11;;;;;;;27.90;16.33;;;-0.40;85.50;;;;;;5073610;28;20225;-86
2021/01/01 01:19:37;;;;;;;24.47;15.23;;;-0.40;85.60;;;;;;5068951;28;20204;-86
2021/01/01 01:22:04;;;;;;;26.87;13.93;;;-0.50;85.50;;;;;;5071290;28;20570;-86
2021/01/01 01:24:31;;;;;;;25.97;15.87;;;-0.60;85.50;;;;;;5074775;28;20325;-87
2021/01/01 01:26:58;;;;;;;32.27;19.33;;;-0.60;86.10;;;;;;5072017;28;20266;-86
2021/01/01 01:29:24;;;;;;;27.73;16.70;;;-0.60;86.30;;;;;;5072480;28;20200;-87
2021/01/01 01:31:51;;;;;;;27.40;15.63;;;-0.70;86.50;;;;;;5073056;28;20307;-86
2021/01/01 01:34:18;;;;;;;27.10;16.03;;;-0.70;87.10;;;;;;5072575;28;20239;-87
2021/01/01 01:36:44;;;;;;;28.70;16.00;;;-0.70;87.20;;;;;;5076402;28;20220;-86
2021/01/01 01:39:11;;;;;;;23.80;14.93;;;-0.60;87.30;;;;;;5067377;28;20571;-88
2021/01/01 01:41:37;;;;;;;26.13;14.10;;;-0.60;86.20;;;;;;5064441;28;20307;-87
2021/01/01 01:44:04;;;;;;;23.50;14.33;;;-0.60;85.50;;;;;;5080755;28;20200;-86
2021/01/01 01:46:42;;;;;;;24.30;14.13;;;-0.70;86.00;;;;;;5067227;28;20228;-87
2021/01/01 01:49:12;;;;;;;20.83;12.90;;;-0.80;86.90;;;;;;5073411;28;20250;-86
2021/01/01 01:51:39;;;;;;;20.33;12.40;;;-0.90;86.60;;;;;;5072181;28;20708;-87
2021/01/01 01:54:07;;;;;;;22.33;13.63;;;-0.80;87.10;;;;;;5073189;28;20694;-87
2021/01/01 01:56:35;;;;;;;24.13;13.47;;;-0.70;86.50;;;;;;5064606;28;20241;-86
2021/01/01 01:59:02;;;;;;;21.57;12.53;;;-0.50;86.60;;;;;;5068095;28;20204;-89
2021/01/01 02:01:28;;;;;;;17.87;11.53;;;-0.40;85.60;;;;;;5078256;28;20255;-87
2021/01/01 02:03:55;;;;;;;18.53;11.93;;;-0.30;85.60;;;;;;5072212;28;20197;-86
2021/01/01 02:06:23;;;;;;;20.60;12.50;;;-0.30;85.60;;;;;;5072127;28;20686;-87
2021/01/01 02:08:50;;;;;;;20.80;12.70;;;-0.30;85.60;;;;;;5078189;28;20653;-86
2021/01/01 02:11:17;;;;;;;19.73;12.27;;;-0.30;85.60;;;;;;5071253;28;20289;-87
2021/01/01 02:13:46;;;;;;;18.37;12.33;;;-0.30;85.60;;;;;;5070527;28;20572;-86
2021/01/01 02:16:13;;;;;;;18.60;11.70;;;-0.20;85.70;;;;;;5082286;28;20236;-87
2021/01/01 02:18:40;;;;;;;16.43;8.83;;;-0.10;85.80;;;;;;5073368;28;20197;-87
2021/01/01 02:21:08;;;;;;;13.43;8.50;;;-0.10;84.80;;;;;;5067206;28;20230;-87
2021/01/01 02:23:35;;;;;;;14.03;8.17;;;-0.20;83.40;;;;;;5073210;28;20208;-86
2021/01/01 02:26:02;;;;;;;13.00;6.90;;;-0.20;83.90;;;;;;5068050;28;20236;-87
2021/01/01 02:28:29;;;;;;;11.87;6.53;;;-0.40;83.40;;;;;;5071579;28;20193;-85
2021/01/01 02:30:55;;;;;;;11.73;7.30;;;-0.40;83.30;;;;;;5069195;28;20233;-87
2021/01/01 02:33:21;;;;;;;10.57;6.80;;;-0.30;82.90;;;;;;5072757;28;20276;-87
2021/01/01 02:35:48;;;;;;;8.50;6.07;;;-0.20;83.20;;;;;;5074540;28;20604;-87
2021/01/01 02:38:14;;;;;;;11.90;6.10;;;-0.20;81.90;;;;;;5076066;28;20295;-87
2021/01/01 02:40:42;;;;;;;10.20;6.27;;;-0.20;82.30;;;;;;5068484;28;20240;-87
2021/01/01 02:43:08;;;;;;;11.40;6.83;;;-0.30;81.60;;;;;;5064189;28;20193;-86
2021/01/01 02:45:35;;;;;;;9.50;6.63;;;-0.30;82.00;;;;;;5073255;28;20641;-87
2021/01/01 02:48:10;;;;;;;9.40;6.23;;;-0.40;81.20;;;;;;5077222;28;20550;-87
2021/01/01 02:50:36;;;;;;;9.83;5.90;;;-0.40;80.80;;;;;;5058458;28;20199;-86
2021/01/01 02:53:04;;;;;;;8.87;5.60;;;-0.40;81.20;;;;;;5066478;28;20611;-86
2021/01/01 02:55:31;;;;;;;10.07;6.30;;;-0.40;81.00;;;;;;5055141;28;20201;-86
2021/01/01 02:57:58;;;;;;;9.17;6.13;;;-0.30;80.70;;;;;;5069824;28;20197;-86
2021/01/01 03:00:25;;;;;;;8.97;6.17;;;-0.30;80.00;;;;;;5068016;28;20217;-87
2021/01/01 03:02:52;;;;;;;11.40;6.50;;;-0.20;81.10;;;;;;5063983;28;20242;-86
2021/01/01 03:05:18;;;;;;;9.03;6.00;;;-0.30;81.70;;;;;;5068100;28;20209;-86
2021/01/01 03:07:45;;;;;;;9.53;5.57;;;-0.30;80.90;;;;;;5076759;28;20221;-86
2021/01/01 03:10:12;;;;;;;9.97;6.20;;;-0.20;80.50;;;;;;5078886;28;20204;-86
2021/01/01 03:12:38;;;;;;;8.83;6.17;;;-0.10;80.10;;;;;;5061706;28;20600;-86
2021/01/01 03:15:07;;;;;;;8.80;6.00;;;-0.10;81.00;;;;;;5070362;28;20217;-86
2021/01/01 03:17:34;;;;;;;9.83;5.73;;;-0.10;80.50;;;;;;5061303;28;20691;-86
2021/01/01 03:20:00;;;;;;;7.57;5.10;;;-0.20;81.40;;;;;;5070301;28;20561;-86
2021/01/01 03:22:27;;;;;;;8.43;5.07;;;-0.30;80.70;;;;;;5077929;28;20222;-86
2021/01/01 03:24:53;;;;;;;6.57;5.03;;;-0.20;79.10;;;;;;5081570;28;20720;-86
2021/01/01 03:27:19;;;;;;;8.07;5.07;;;-0.20;78.10;;;;;;5068283;28;20237;-86
2021/01/01 03:29:46;;;;;;;8.03;5.37;;;-0.30;78.80;;;;;;5070942;28;20192;-86
2021/01/01 03:32:13;;;;;;;6.47;4.43;;;-0.30;79.80;;;;;;5069806;28;20725;-86
2021/01/01 03:34:40;;;;;;;8.00;5.60;;;-0.30;79.10;;;;;;5078794;28;20228;-86
2021/01/01 03:37:06;;;;;;;9.63;5.50;;;-0.30;79.20;;;;;;5064045;28;20218;-86
2021/01/01 03:39:33;;;;;;;8.30;5.13;;;-0.10;78.90;;;;;;5077355;28;20197;-87
2021/01/01 03:41:59;;;;;;;11.00;5.40;;;-0.10;78.80;;;;;;5069272;28;20225;-85
2021/01/01 03:44:26;;;;;;;10.23;5.13;;;-0.20;79.10;;;;;;5076247;28;20208;-86
2021/01/01 03:46:52;;;;;;;8.77;5.50;;;-0.20;79.80;;;;;;5071149;28;20752;-87
2021/01/01 03:49:20;;;;;;;8.43;4.80;;;0.00;79.40;;;;;;5077677;28;20203;-85
2021/01/01 03:51:46;;;;;;;6.80;4.73;;;0.10;78.70;;;;;;5071628;28;20700;-86
2021/01/01 03:54:13;;;;;;;6.97;4.80;;;0.10;78.80;;;;;;5066151;28;20232;-85
2021/01/01 03:56:39;;;;;;;6.13;4.43;;;0.10;78.40;;;;;;5057712;28;20225;-86
2021/01/01 03:59:05;;;;;;;6.57;4.87;;;0.10;77.40;;;;;;5069780;28;20714;-85
2021/01/01 04:01:33;;;;;;;7.80;4.77;;;0.00;78.30;;;;;;5070975;28;20682;-85
2021/01/01 04:03:59;;;;;;;10.03;4.80;;;-0.10;79.30;;;;;;5071851;28;20190;-86
2021/01/01 04:06:26;;;;;;;7.70;4.53;;;-0.20;78.60;;;;;;5067564;28;20238;-85
2021/01/01 04:08:53;;;;;;;6.40;4.47;;;-0.10;78.70;;;;;;5065299;28;20197;-86
2021/01/01 04:11:19;;;;;;;6.27;4.63;;;-0.20;78.70;;;;;;5069713;28;20592;-85
2021/01/01 04:13:46;;;;;;;7.37;4.87;;;-0.20;79.60;;;;;;5072561;28;20580;-85
2021/01/01 04:16:12;;;;;;;6.63;4.67;;;-0.30;79.70;;;;;;5072015;28;20763;-86
2021/01/01 04:18:38;;;;;;;8.03;5.00;;;-0.50;79.80;;;;;;5073047;28;20200;-85
2021/01/01 04:21:06;;;;;;;7.90;5.23;;;-0.60;80.30;;;;;;5071626;28;20217;-86
2021/01/01 04:23:34;;;;;;;7.30;4.60;;;-0.70;82.20;;;;;;5073479;28;20213;-85
2021/01/01 04:26:00;;;;;;;8.83;5.40;;;-0.50;81.70;;;;;;5078586;28;20772;-86
2021/01/01 04:28:27;;;;;;;7.13;4.50;;;-0.50;82.10;;;;;;5076610;28;20212;-85
2021/01/01 04:30:53;;;;;;;7.20;4.97;;;-0.60;81.70;;;;;;5073328;28;20294;-86
2021/01/01 04:33:20;;;;;;;9.63;4.77;;;-0.70;81.60;;;;;;5076836;28;20197;-85
2021/01/01 04:35:46;;;;;;;8.50;4.57;;;-0.80;81.50;;;;;;5075522;28;20225;-85
2021/01/01 04:38:13;;;;;;;6.73;4.47;;;-0.80;81.80;;;;;;5077557;28;20220;-86
2021/01/01 04:40:40;;;;;;;8.80;5.20;;;-0.70;81.10;;;;;;5078775;28;20198;-85
2021/01/01 04:43:07;;;;;;;7.10;4.50;;;-0.60;81.30;;;;;;5072828;28;20255;-85
2021/01/01 04:45:33;;;;;;;6.23;4.83;;;-0.50;80.80;;;;;;5078083;28;20193;-85
2021/01/01 04:48:00;;;;;;;8.83;4.77;;;-0.50;80.70;;;;;;5079300;28;20663;-85
2021/01/01 04:50:26;;;;;;;8.07;4.83;;;-0.40;81.20;;;;;;5078525;28;20207;-85
2021/01/01 04:52:57;;;;;;;8.63;5.20;;;-0.40;81.00;;;;;;5082243;28;20208;-86
2021/01/01 04:55:25;;;;;;;7.00;4.90;;;-0.30;80.90;;;;;;5082203;28;20238;-87
2021/01/01 04:57:53;;;;;;;11.27;4.97;;;-0.30;80.80;;;;;;5071514;28;20198;-85
2021/01/01 05:00:20;;;;;;;7.87;4.73;;;-0.30;81.30;;;;;;5066085;28;20229;-85
2021/01/01 05:02:46;;;;;;;6.70;4.73;;;-0.20;81.70;;;;;;5071748;28;20213;-86
2021/01/01 05:05:13;;;;;;;8.43;4.70;;;-0.20;81.40;;;;;;5079857;28;20231;-85
2021/01/01 05:07:39;;;;;;;7.17;5.40;;;-0.10;80.70;;;;;;5072775;28;20291;-85
2021/01/01 05:10:06;;;;;;;8.80;5.10;;;-0.20;81.20;;;;;;5072379;28;20189;-86
2021/01/01 05:12:33;;;;;;;8.10;4.67;;;-0.20;82.00;;;;;;5072910;28;20217;-85
2021/01/01 05:15:00;;;;;;;7.83;5.17;;;-0.10;81.80;;;;;;5074475;28;20221;-86
2021/01/01 05:17:34;;;;;;;9.03;4.80;;;-0.10;81.10;;;;;;5067173;28;20707;-85
2021/01/01 05:20:08;;;;;;;7.43;5.10;;;0.00;81.00;;;;;;5066872;28;20202;-85
2021/01/01 05:22:35;;;;;;;7.47;5.10;;;-0.20;81.70;;;;;;5065079;28;20237;-86
2021/01/01 05:25:03;;;;;;;8.17;4.70;;;-0.10;81.80;;;;;;5073402;28;20194;-86
2021/01/01 05:27:34;;;;;;;8.87;5.23;;;-0.10;81.60;;;;;;5072626;28;20230;-85
2021/01/01 05:30:01;;;;;;;7.83;5.07;;;-0.10;81.40;;;;;;5072079;28;20208;-86
2021/01/01 05:32:29;;;;;;;7.43;4.57;;;-0.20;81.60;;;;;;5072674;28;20240;-85
2021/01/01 05:34:57;;;;;;;10.57;5.03;;;-0.20;81.00;;;;;;5074728;28;20213;-86
2021/01/01 05:37:28;;;;;;;9.60;5.10;;;-0.30;81.10;;;;;;5075089;28;20233;-85
2021/01/01 05:40:06;;;;;;;9.13;5.00;;;-0.50;82.80;;;;;;5072514;28;20208;-87
2021/01/01 05:42:32;;;;;;;10.53;5.43;;;-0.60;83.70;;;;;;5079275;28;20217;-85
2021/01/01 05:45:13;;;;;;;9.70;5.47;;;-0.70;83.50;;;;;;5062922;28;20193;-86
2021/01/01 05:47:39;;;;;;;9.13;5.23;;;-0.70;84.20;;;;;;5065022;28;20217;-85
2021/01/01 05:50:07;;;;;;;9.97;5.23;;;-0.70;84.60;;;;;;5072810;28;20292;-86
2021/01/01 05:52:34;;;;;;;10.07;6.40;;;-0.70;85.40;;;;;;5072338;28;20345;-85
2021/01/01 05:55:01;;;;;;;13.37;6.27;;;-0.70;85.40;;;;;;5067943;28;20220;-85
2021/01/01 05:57:34;;;;;;;8.87;5.37;;;-0.70;85.40;;;;;;5073217;28;20278;-85
2021/01/01 06:00:04;;;;;;;9.53;5.10;;;-0.90;85.20;;;;;;5072642;28;20278;-85
2021/01/01 06:02:37;;;;;;;9.90;6.10;;;-1.00;86.00;;;;;;5072578;28;21787;-85
2021/01/01 06:05:07;;;;;;;11.27;6.20;;;-0.90;85.20;;;;;;5072696;28;20246;-85
2021/01/01 06:07:36;;;;;;;9.40;5.17;;;-0.90;85.20;;;;;;5073010;28;20217;-86
2021/01/01 06:10:05;;;;;;;7.90;5.57;;;-1.00;85.20;;;;;;5073329;28;20648;-85
2021/01/01 06:12:35;;;;;;;11.37;5.93;;;-1.00;85.20;;;;;;5073161;28;20224;-85
2021/01/01 06:15:02;;;;;;;12.63;6.43;;;-0.90;85.20;;;;;;5071416;28;20683;-85
2021/01/01 06:17:38;;;;;;;10.87;6.13;;;-0.90;85.20;;;;;;5081401;28;20273;-85
2021/01/01 06:20:06;;;;;;;11.43;5.93;;;-0.90;85.30;;;;;;5078524;28;20228;-85
2021/01/01 06:22:32;;;;;;;10.37;5.70;;;-0.90;85.20;;;;;;5072778;28;20221;-85
2021/01/01 06:25:00;;;;;;;9.63;5.70;;;-0.90;85.20;;;;;;5075745;28;20203;-85
2021/01/01 06:27:28;;;;;;;11.97;6.20;;;-0.90;85.20;;;;;;5075040;28;20236;-86
2021/01/01 06:29:57;;;;;;;9.10;5.63;;;-0.90;85.30;;;;;;5066210;28;20674;-85
2021/01/01 06:32:23;;;;;;;10.40;5.67;;;-1.00;85.20;;;;;;5073078;28;20278;-84
2021/01/01 06:34:52;;;;;;;9.93;5.67;;;-1.00;85.20;;;;;;5075436;28;20227;-85
2021/01/01 06:37:38;;;;;;;11.27;5.60;;;-1.10;85.80;;;;;;5074456;28;20332;-85
2021/01/01 06:40:07;;;;;;;10.40;5.87;;;-1.10;86.70;;;;;;5074607;28;20670;-86
2021/01/01 06:42:51;;;;;;;8.53;5.40;;;-1.20;87.00;;;;;;5074181;28;20217;-85
2021/01/01 06:45:39;;;;;;;13.03;5.67;;;-1.30;87.60;;;;;;5074937;28;20195;-85
2021/01/01 06:48:06;;;;;;;7.60;5.20;;;-1.40;88.90;;;;;;5075083;28;20209;-85
2021/01/01 06:50:35;;;;;;;8.97;5.37;;;-1.40;88.90;;;;;;5075372;28;20220;-85
2021/01/01 06:53:03;;;;;;;9.60;5.97;;;-1.40;89.50;;;;;;5076468;28;20190;-86
2021/01/01 06:55:33;;;;;;;9.07;5.80;;;-1.40;89.00;;;;;;5074826;28;20227;-85
2021/01/01 06:58:00;;;;;;;11.73;6.20;;;-1.30;89.30;;;;;;5073497;28;20190;-86
2021/01/01 07:00:54;;;;;;;12.80;6.40;;;-1.30;88.80;;;;;;5075909;28;20220;-87
2021/01/01 07:03:31;;;;;;;10.67;6.30;;;-1.30;88.40;;;;;;5072687;28;20558;-85
2021/01/01 07:06:37;;;;;;;12.10;6.60;;;-1.30;89.10;;;;;;5087435;28;20231;-87
2021/01/01 07:09:11;;;;;;;10.37;6.23;;;-1.30;89.80;;;;;;5069823;28;20196;-85
2021/01/01 07:11:42;;;;;;;10.67;6.00;;;-1.20;88.90;;;;;;5065717;28;20221;-86
2021/01/01 07:14:10;;;;;;;8.83;5.73;;;-1.10;88.90;;;;;;5074676;28;20227;-86
2021/01/01 07:16:42;;;;;;;10.23;6.23;;;-1.10;88.70;;;;;;5070952;28;20348;-85
2021/01/01 07:19:09;;;;;;;11.20;6.30;;;-1.10;88.30;;;;;;5068610;28;20205;-87
2021/01/01 07:21:36;;;;;;;10.87;6.23;;;-1.10;88.30;;;;;;5070617;28;20221;-85
2021/01/01 07:24:03;;;;;;;11.60;6.67;;;-1.10;88.70;;;;;;5071603;28;20200;-87
2021/01/01 07:26:30;;;;;;;9.47;6.10;;;-1.10;88.60;;;;;;5071201;28;20228;-85
2021/01/01 07:28:59;;;;;;;11.10;6.80;;;-1.10;88.40;;;;;;5071894;28;20200;-87
2021/01/01 07:31:26;;;;;;;10.83;6.93;;;-1.20;89.30;;;;;;5066009;28;20705;-85
2021/01/01 07:33:53;;;;;;;10.63;6.50;;;-1.30;89.70;;;;;;5071375;28;20232;-85
2021/01/01 07:36:19;;;;;;;9.43;6.63;;;-1.30;90.00;;;;;;5071984;28;20285;-85
2021/01/01 07:38:47;;;;;;;9.20;5.90;;;-1.20;89.10;;;;;;5066704;28;20193;-85
2021/01/01 07:41:16;;;;;;;9.70;6.33;;;-1.20;88.60;;;;;;5070312;28;20598;-85
2021/01/01 07:43:42;;;;;;;10.90;6.50;;;-1.10;88.70;;;;;;5072372;28;20204;-86
2021/01/01 07:46:10;;;;;;;11.63;7.00;;;-1.00;88.90;;;;;;5072774;28;20244;-85
2021/01/01 07:48:37;;;;;;;10.93;6.60;;;-1.00;89.40;;;;;;5069878;28;20258;-86
2021/01/01 07:51:05;;;;;;;11.03;7.03;;;-1.00;88.10;;;;;;5073739;28;20246;-85
2021/01/01 07:53:32;;;;;;;14.27;7.83;;;-1.10;88.20;;;;;;5074956;28;20197;-85
2021/01/01 07:56:01;;;;;;;14.23;7.33;;;-1.20;90.00;;;;;;5067734;28;20275;-86
2021/01/01 07:58:29;;;;;;;11.50;6.90;;;-1.20;90.40;;;;;;5075962;28;20205;-85
2021/01/01 08:01:03;;;;;;;12.97;7.77;;;-1.10;90.50;;;;;;5074878;28;20321;-87
2021/01/01 08:03:32;;;;;;;11.30;7.30;;;-0.90;90.30;;;;;;5070689;28;20209;-85
2021/01/01 08:05:59;;;;;;;14.10;7.57;;;-0.80;90.20;;;;;;5082181;28;20229;-85
2021/01/01 08:08:26;;;;;;;13.10;7.33;;;-0.60;90.00;;;;;;5080224;28;20205;-86
2021/01/01 08:10:54;;;;;;;12.53;6.47;;;-0.40;89.40;;;;;;5079446;28;20241;-86
2021/01/01 08:13:24;;;;;;;10.53;6.97;;;-0.30;88.60;;;;;;5069145;28;20255;-85
2021/01/01 08:15:51;;;;;;;11.77;7.27;;;-0.20;87.60;;;;;;5075412;28;20237;-87
2021/01/01 08:18:19;;;;;;;12.93;7.43;;;-0.20;87.40;;;;;;5077447;28;20193;-85
2021/01/01 08:20:47;;;;;;;14.23;8.30;;;-0.10;87.00;;;;;;5076685;28;20220;-86
2021/01/01 08:23:15;;;;;;;11.13;7.40;;;-0.10;86.70;;;;;;5075422;28;20197;-86
2021/01/01 08:25:42;;;;;;;15.13;8.60;;;0.00;86.00;;;;;;5077923;28;20202;-85
2021/01/01 08:28:10;;;;;;;12.60;8.17;;;0.10;85.90;;;;;;5077604;28;20201;-88
2021/01/01 08:30:39;;;;;;;11.90;8.10;;;0.20;85.90;;;;;;5076152;28;20201;-86
2021/01/01 08:33:06;;;;;;;14.90;8.83;;;0.30;86.00;;;;;;5075872;28;20232;-85
2021/01/01 08:35:33;;;;;;;13.47;8.03;;;0.50;86.10;;;;;;5075277;28;20215;-83
2021/01/01 08:38:00;;;;;;;13.40;8.57;;;0.70;86.20;;;;;;5070124;28;20199;-84
2021/01/01 08:40:26;;;;;;;12.50;8.57;;;0.90;84.60;;;;;;5079531;28;20202;-84
2021/01/01 08:42:55;;;;;;;11.97;8.17;;;1.10;83.30;;;;;;5075186;28;20196;-83
2021/01/01 08:45:22;;;;;;;13.80;8.67;;;1.30;82.60;;;;;;5079304;28;20206;-85
2021/01/01 08:47:50;;;;;;;11.97;8.40;;;1.50;81.40;;;;;;5082379;28;20693;-85
2021/01/01 08:50:24;;;;;;;13.97;8.40;;;1.70;80.20;;;;;;5068185;28;20259;-84
2021/01/01 08:53:00;;;;;;;14.60;9.33;;;1.90;79.30;;;;;;5072491;28;20246;-85
2021/01/01 08:55:27;;;;;;;14.47;8.93;;;2.00;79.50;;;;;;5069739;28;20251;-85
2021/01/01 08:58:09;;;;;;;12.77;8.93;;;2.30;78.40;;;;;;5079095;28;20196;-85
2021/01/01 09:00:36;;;;;;;12.60;9.17;;;2.90;77.10;;;;;;5070297;28;20620;-85
2021/01/01 09:03:05;;;;;;;15.33;9.33;;;3.50;72.10;;;;;;5075805;28;20267;-85
2021/01/01 09:05:31;;;;;;;13.43;8.97;;;4.10;68.80;;;;;;5082845;28;20212;-88
2021/01/01 09:08:12;;;;;;;13.93;9.40;;;4.80;63.40;;;;;;5075181;28;20262;-87
2021/01/01 09:10:40;;;;;;;11.53;8.50;;;5.70;56.70;;;;;;5078701;28;20581;-87
2021/01/01 09:13:17;;;;;;;12.23;8.90;;;6.10;55.90;;;;;;5087283;28;20283;-87
2021/01/01 09:15:45;;;;;;;11.83;8.67;;;6.60;51.20;;;;;;5072746;28;20237;-87
2021/01/01 09:18:13;;;;;;;13.07;9.32;;;7.30;49.70;;;;;;5082480;28;20219;-89
2021/01/01 09:20:45;;;;;;;12.85;9.23;;;8.10;46.80;;;;;;5071952;28;20196;-87
2021/01/01 09:23:13;;;;;;;12.10;8.95;;;8.60;44.90;;;;;;5077427;28;20654;-87
2021/01/01 09:25:44;;;;;;;14.35;8.70;;;9.40;43.00;;;;;;5082045;28;20197;-89
2021/01/01 09:28:40;;;;;;;11.80;8.57;;;10.00;40.00;;;;;;5089440;28;20260;-87
2021/01/01 09:31:06;;;;;;;10.90;8.82;;;10.50;37.70;;;;;;5084445;28;20290;-87
2021/01/01 09:33:34;;;;;;;9.90;8.25;;;11.00;36.50;;;;;;5069089;28;20708;-89
2021/01/01 09:36:00;;;;;;;10.18;8.20;;;11.00;35.70;;;;;;5075370;28;20301;-90
2021/01/01 09:38:27;;;;;;;10.60;8.57;;;11.30;35.40;;;;;;5070234;28;20284;-89
2021/01/01 09:40:53;;;;;;;11.02;8.63;;;11.80;34.70;;;;;;5077168;28;20231;-87
2021/01/01 09:43:20;;;;;;;10.18;8.90;;;12.20;33.70;;;;;;5078566;28;20197;-88
2021/01/01 09:45:46;;;;;;;10.63;9.02;;;11.70;34.10;;;;;;5078668;28;20311;-87
2021/01/01 09:48:15;;;;;;;9.98;8.82;;;11.30;33.30;;;;;;5079912;28;20740;-88
2021/01/01 09:50:43;;;;;;;9.88;8.18;;;11.30;34.90;;;;;;5072020;28;20236;-88
2021/01/01 09:53:10;;;;;;;11.02;9.00;;;11.90;33.50;;;;;;5073275;28;20247;-87
2021/01/01 09:55:36;;;;;;;13.65;9.35;;;11.40;33.80;;;;;;5064304;28;20304;-91
2021/01/01 09:58:03;;;;;;;11.30;8.80;;;10.40;35.50;;;;;;5072248;28;20198;-89
2021/01/01 10:00:29;;;;;;;12.57;9.18;;;9.20;38.90;;;;;;5075786;28;20747;-89
2021/01/01 10:02:58;;;;;;;10.25;8.70;;;8.60;41.50;;;;;;5066829;28;20288;-90
2021/01/01 10:05:26;;;;;;;11.02;8.88;;;7.90;43.20;;;;;;5066636;28;20217;-89
2021/01/01 10:07:54;;;;;;;10.70;7.90;;;7.60;46.30;;;;;;5068732;28;20580;-90
2021/01/01 10:10:21;;;;;;;11.52;8.43;;;7.60;46.00;;;;;;5080760;28;20218;-90
2021/01/01 10:12:47;;;;;;;10.20;7.97;;;7.40;46.10;;;;;;5061730;28;20260;-89
2021/01/01 10:15:15;;;;;;;11.77;8.68;;;7.10;46.00;;;;;;5080037;28;20615;-89
2021/01/01 10:17:41;;;;;;;10.40;8.15;;;6.90;45.80;;;;;;5075635;28;20755;-89
2021/01/01 10:20:08;;;;;;;12.88;8.00;;;6.70;46.20;;;;;;5068253;28;20559;-89
2021/01/01 10:22:35;;;;;;;11.68;7.80;;;6.70;46.90;;;;;;5075259;28;20695;-88
2021/01/01 10:25:03;;;;;;;13.38;8.43;;;6.80;47.30;;;;;;5081339;28;20207;-89
2021/01/01 10:27:30;;;;;;;11.73;8.35;;;6.40;47.40;;;;;;5076903;28;20248;-88
2021/01/01 10:29:56;;;;;;;10.73;8.40;;;6.80;48.10;;;;;;5076540;28;20243;-89
2021/01/01 10:32:23;;;;;;;10.27;7.70;;;6.80;48.70;;;;;;5076692;28;20323;-88
2021/01/01 10:34:49;;;;;;;11.38;8.15;;;6.90;49.80;;;;;;5081228;28;20221;-88
2021/01/01 10:37:16;;;;;;;10.23;7.50;;;6.90;48.00;;;;;;5078896;28;20309;-87
2021/01/01 10:39:42;;;;;;;9.80;7.80;;;6.80;48.80;;;;;;5080322;28;20190;-88
2021/01/01 10:42:11;;;;;;;10.88;7.93;;;6.90;50.30;;;;;;5082365;28;20221;-88
2021/01/01 10:44:38;;;;;;;11.80;8.07;;;7.30;49.10;;;;;;5083128;28;20227;-88
2021/01/01 10:47:05;;;;;;;12.82;7.72;;;7.70;47.50;;;;;;5076515;28;20233;-88
2021/01/01 10:49:56;;;;;;;8.27;7.38;;;8.40;47.00;;;;;;5077311;28;20209;-88
2021/01/01 10:52:23;;;;;;;10.80;7.53;;;9.10;45.50;;;;;;5082177;28;20225;-88
2021/01/01 10:54:49;;;;;;;12.93;7.85;;;9.50;42.90;;;;;;5072990;28;20217;-88
2021/01/01 10:57:16;;;;;;;10.00;7.38;;;9.70;41.90;;;;;;5070085;28;20316;-91
2021/01/01 10:59:45;;;;;;;10.45;7.97;;;9.50;43.90;;;;;;5075664;28;20280;-90
2021/01/01 11:02:11;;;;;;;12.23;7.65;;;9.50;43.30;;;;;;5070229;28;20312;-91
2021/01/01 11:04:38;;;;;;;9.20;7.00;;;9.70;42.80;;;;;;5075444;28;20288;-90
2021/01/01 11:07:04;;;;;;;8.95;7.30;;;10.00;41.00;;;;;;5071461;28;20259;-89
2021/01/01 11:09:31;;;;;;;9.48;7.13;;;10.10;41.10;;;;;;5069562;28;20296;-91
2021/01/01 11:11:58;;;;;;;8.90;6.70;;;9.50;44.60;;;;;;5062678;28;20241;-90
2021/01/01 11:14:38;;;;;;;10.00;6.68;;;8.90;45.90;;;;;;5081070;28;20292;-88
2021/01/01 12:20:58;;;;;;;6.63;5.27;;;5.50;70.40;;;;;;5073177;28;20251;-87
2021/01/01 12:23:43;;;;;;;7.03;5.30;;;5.60;70.40;;;;;;5074555;28;20556;-87
2021/01/01 12:26:10;;;;;;;6.40;5.20;;;5.70;70.40;;;;;;5073695;28;20225;-86
2021/01/01 12:28:37;;;;;;;6.67;5.20;;;5.70;72.10;;;;;;5061248;28;20227;-88
2021/01/01 12:31:06;;;;;;;6.43;4.97;;;5.70;72.00;;;;;;5073780;28;20298;-88
2021/01/01 12:33:32;;;;;;;7.97;5.00;;;5.90;72.00;;;;;;5076079;28;20197;-89
2021/01/01 12:36:00;;;;;;;5.77;5.03;;;6.00;70.70;;;;;;5073506;28;20220;-88
2021/01/01 12:38:29;;;;;;;6.10;5.00;;;6.00;70.70;;;;;;5068694;28;20272;-89
2021/01/01 12:40:57;;;;;;;6.00;4.70;;;6.00;71.00;;;;;;5074050;28;20715;-88
2021/01/01 12:43:24;;;;;;;7.67;4.97;;;5.90;72.00;;;;;;5074694;28;20261;-88
2021/01/01 12:45:50;;;;;;;7.03;5.20;;;5.80;72.10;;;;;;5074970;28;20231;-87
2021/01/01 12:48:17;;;;;;;5.97;4.83;;;5.70;72.70;;;;;;5061302;28;20904;-89
2021/01/01 12:50:46;;;;;;;7.27;4.90;;;5.60;73.50;;;;;;5081288;28;20194;-88
2021/01/01 12:53:14;;;;;;;7.77;5.30;;;5.50;74.60;;;;;;5080432;28;20200;-87
2021/01/01 12:55:40;;;;;;;6.37;5.30;;;5.30;75.50;;;;;;5074447;28;20256;-88
2021/01/01 12:58:07;;;;;;;8.27;5.20;;;5.20;76.80;;;;;;5080092;28;20196;-87
2021/01/01 13:00:33;;;;;;;8.80;5.93;;;5.10;77.50;;;;;;5067118;28;20259;-86
2021/01/01 13:03:00;;;;;;;7.23;5.83;;;5.00;78.10;;;;;;5073618;28;20193;-87
2021/01/01 13:05:28;;;;;;;8.57;5.50;;;5.00;79.30;;;;;;5080900;28;20249;-88
2021/01/01 13:07:54;;;;;;;8.87;5.77;;;5.00;78.50;;;;;;5077269;28;20567;-88
2021/01/01 13:10:22;;;;;;;6.50;5.00;;;5.00;78.90;;;;;;5080625;28;20254;-88
2021/01/01 13:12:48;;;;;;;7.70;5.60;;;5.00;79.60;;;;;;5069313;28;20217;-87
2021/01/01 13:15:15;;;;;;;8.63;6.00;;;4.90;79.80;;;;;;5072711;28;20233;-86
2021/01/01 13:17:41;;;;;;;9.17;6.10;;;4.90;78.60;;;;;;5078364;28;20273;-87
2021/01/01 13:20:09;;;;;;;9.03;5.93;;;5.00;77.40;;;;;;5072827;28;20197;-86
2021/01/01 13:22:35;;;;;;;9.73;5.80;;;4.90;78.00;;;;;;5077990;28;20217;-86
2021/01/01 13:25:01;;;;;;;9.10;6.67;;;4.90;77.90;;;;;;5078341;28;20209;-86
2021/01/01 13:27:29;;;;;;;9.30;6.13;;;4.80;77.50;;;;;;5081438;28;20278;-86
2021/01/01 13:29:55;;;;;;;9.23;6.27;;;4.80;77.50;;;;;;5076864;28;20190;-86
2021/01/01 13:32:22;;;;;;;9.77;7.23;;;4.80;77.60;;;;;;5059269;28;20225;-86
2021/01/01 13:34:48;;;;;;;9.33;6.47;;;4.80;78.50;;;;;;5077410;28;20294;-86
2021/01/01 13:37:14;;;;;;;8.00;6.03;;;4.90;78.70;;;;;;5074991;28;20231;-87
2021/01/01 13:39:42;;;;;;;9.07;6.50;;;4.90;78.50;;;;;;5082674;28;20424;-88
2021/01/01 13:42:11;;;;;;;11.77;8.63;;;4.90;78.80;;;;;;5090843;28;20233;-87
2021/01/01 13:44:38;;;;;;;8.70;5.77;;;4.80;79.70;;;;;;5075916;28;20200;-86
2021/01/01 13:47:05;;;;;;;13.27;9.13;;;4.80;80.40;;;;;;5073427;28;20227;-86
2021/01/01 13:49:31;;;;;;;9.90;6.33;;;4.80;81.30;;;;;;5074570;28;20201;-87
2021/01/01 13:52:01;;;;;;;9.87;6.40;;;4.80;81.50;;;;;;5071324;28;20229;-87